Time;durP1;ratioP1;P1;durP2;ratioP2;P2;SDS_P1;SDS_P2;PMS_P1;PMS_P2;Temp;Humidity;BMP_temperature;BMP_pressure;BME280_temperature;BME280_humidity;BME280_pressure;Samples;Min_cycle;Max_cycle;Signal;HPM_P1;HPM_P2
2021/05/09 00:02:09;;;;;;;7.13;4.45;;;;;;;11.33;100.00;100233.69;5015523;28;20029;-79
2021/05/09 00:04:35;;;;;;;6.20;4.00;;;;;;;11.31;100.00;100235.97;5013528;28;20038;-77
2021/05/09 00:07:01;;;;;;;6.15;3.92;;;;;;;11.33;100.00;100229.06;5013296;28;20731;-78
2021/05/09 00:09:26;;;;;;;7.82;3.85;;;;;;;11.20;100.00;100218.94;5011697;28;20506;-78
2021/05/09 00:11:52;;;;;;;7.78;3.97;;;;;;;11.16;100.00;100218.09;5013544;28;20248;-77
2021/05/09 00:14:18;;;;;;;4.90;3.78;;;;;;;10.95;100.00;100215.19;5007614;28;20050;-78
2021/05/09 00:16:43;;;;;;;5.18;3.80;;;;;;;11.15;100.00;100217.31;5011282;28;20145;-78
2021/05/09 00:19:09;;;;;;;6.05;3.78;;;;;;;11.06;100.00;100224.16;5015083;28;20038;-78
2021/05/09 00:21:34;;;;;;;5.93;3.80;;;;;;;11.14;100.00;100218.47;5011754;28;20038;-78
2021/05/09 00:24:00;;;;;;;5.40;4.38;;;;;;;11.35;100.00;100215.22;5008780;28;20041;-78
2021/05/09 00:26:26;;;;;;;5.28;3.72;;;;;;;11.12;100.00;100210.00;5010099;28;20034;-78
2021/05/09 00:28:51;;;;;;;6.35;3.65;;;;;;;11.06;100.00;100213.38;5007967;28;20124;-79
2021/05/09 00:31:17;;;;;;;6.35;3.67;;;;;;;11.00;100.00;100212.16;5016469;28;20084;-78
2021/05/09 00:33:42;;;;;;;5.03;4.00;;;;;;;11.10;100.00;100206.09;4993458;28;20061;-78
2021/05/09 00:36:08;;;;;;;4.93;4.05;;;;;;;11.25;100.00;100213.19;5011719;28;20026;-78
2021/05/09 00:38:40;;;;;;;4.97;3.90;;;;;;;11.37;100.00;100215.63;5007773;28;20437;-78
2021/05/09 00:41:06;;;;;;;5.13;4.07;;;;;;;11.22;100.00;100205.84;5016567;28;20473;-77
2021/05/09 00:43:31;;;;;;;7.45;3.78;;;;;;;11.17;100.00;100203.50;5015533;28;20065;-76
2021/05/09 00:45:57;;;;;;;6.45;4.18;;;;;;;11.38;100.00;100190.22;5016330;28;20259;-76
2021/05/09 00:48:22;;;;;;;10.10;4.40;;;;;;;11.31;100.00;100180.16;5019807;28;20512;-78
2021/05/09 00:50:48;;;;;;;5.95;3.83;;;;;;;11.40;100.00;100179.84;5011896;28;20145;-78
2021/05/09 00:53:16;;;;;;;3.95;3.55;;;;;;;11.54;100.00;100183.44;5012005;28;20029;-76
2021/05/09 00:55:42;;;;;;;5.70;3.88;;;;;;;11.52;100.00;100185.72;5000319;28;20038;-78
2021/05/09 00:58:13;;;;;;;6.00;4.10;;;;;;;11.38;100.00;100184.84;5007726;28;20029;-78
2021/05/09 01:00:39;;;;;;;;;;;;;;;11.46;100.00;100167.56;5014767;28;20042;-76
2021/05/09 01:03:07;;;;;;;5.18;3.80;;;;;;;11.56;100.00;100170.34;5007162;28;20132;-77
2021/05/09 01:05:34;;;;;;;5.13;3.88;;;;;;;11.62;100.00;100168.88;5002220;28;20080;-77
2021/05/09 01:08:01;;;;;;;5.85;4.07;;;;;;;11.63;99.26;100170.41;5011943;28;20117;-77
2021/05/09 01:10:27;;;;;;;5.05;3.78;;;;;;;11.21;100.00;100161.94;5010039;28;20444;-77
2021/05/09 01:12:53;;;;;;;4.65;3.78;;;;;;;11.50;100.00;100171.06;5010682;28;20180;-77
2021/05/09 01:15:19;;;;;;;5.05;3.47;;;;;;;11.55;98.96;100166.13;4989379;28;20065;-76
2021/05/09 01:17:45;;;;;;;4.75;4.07;;;;;;;11.55;100.00;100168.03;5014418;28;20037;-78
2021/05/09 01:20:14;;;;;;;4.85;3.53;;;;;;;11.49;99.65;100170.31;5010065;28;20502;-77
2021/05/09 01:22:44;;;;;;;5.38;3.78;;;;;;;11.76;99.36;100176.34;5010720;28;20033;-78
2021/05/09 01:25:11;;;;;;;3.88;3.47;;;;;;;11.76;99.01;100174.41;5014826;28;20395;-78
2021/05/09 01:27:37;;;;;;;4.88;3.78;;;;;;;11.80;98.01;100177.13;5012113;28;20026;-77
2021/05/09 01:30:05;;;;;;;6.88;3.70;;;;;;;11.71;99.24;100174.75;5006989;28;20292;-78
2021/05/09 01:32:30;;;;;;;8.65;3.30;;;;;;;11.93;97.16;100169.50;5015942;28;20064;-77
2021/05/09 01:34:56;;;;;;;6.60;3.65;;;;;;;11.91;96.36;100172.56;5009626;28;20698;-77
2021/05/09 01:37:21;;;;;;;5.65;3.55;;;;;;;11.84;97.57;100177.94;5002908;28;20034;-77
2021/05/09 01:39:47;;;;;;;5.00;3.55;;;;;;;11.79;97.83;100175.56;5006815;28;20129;-78
2021/05/09 01:42:12;;;;;;;4.35;3.30;;;;;;;11.77;98.70;100180.56;4994390;28;20454;-77
2021/05/09 01:44:51;;;;;;;5.72;3.25;;;;;;;11.73;97.76;100174.38;5000407;28;20029;-78
2021/05/09 01:47:17;;;;;;;6.07;3.28;;;;;;;11.96;97.04;100164.16;5014135;28;20027;-78
2021/05/09 01:49:42;;;;;;;4.22;3.10;;;;;;;12.15;95.64;100155.78;5008902;28;20510;-78
2021/05/09 01:52:08;;;;;;;4.13;3.22;;;;;;;12.01;96.52;100160.31;5009340;28;20029;-78
2021/05/09 01:54:34;;;;;;;4.68;3.47;;;;;;;11.92;96.27;100157.16;4998204;28;20057;-78
2021/05/09 01:56:59;;;;;;;4.63;3.50;;;;;;;11.99;96.53;100157.22;5010586;28;20109;-78
2021/05/09 01:59:28;;;;;;;4.95;3.45;;;;;;;12.08;96.68;100158.41;5006572;28;20052;-77
2021/05/09 02:01:54;;;;;;;3.67;3.20;;;;;;;11.91;96.52;100158.31;4992938;28;20029;-78
2021/05/09 02:04:31;;;;;;;4.43;3.28;;;;;;;11.73;98.86;100155.47;5012098;28;20033;-77
2021/05/09 02:06:59;;;;;;;6.07;3.40;;;;;;;11.64;98.71;100163.09;5008283;28;20036;-78
2021/05/09 02:09:25;;;;;;;4.38;3.10;;;;;;;11.89;97.51;100157.91;5011829;28;20025;-78
2021/05/09 02:11:52;;;;;;;3.13;2.53;;;;;;;11.87;96.83;100155.59;5011441;28;20033;-79
2021/05/09 02:14:26;;;;;;;3.83;3.22;;;;;;;12.06;95.32;100158.03;4979493;28;20084;-79
2021/05/09 02:16:59;;;;;;;5.13;3.30;;;;;;;12.05;94.96;100148.41;4997248;28;20022;-79
2021/05/09 02:19:25;;;;;;;4.43;2.90;;;;;;;11.93;96.25;100148.69;5017457;28;20026;-79
2021/05/09 02:21:51;;;;;;;3.33;2.85;;;;;;;11.71;96.88;100150.47;5000587;28;20428;-78
2021/05/09 02:24:17;;;;;;;3.45;3.15;;;;;;;11.71;97.22;100155.88;5002915;28;20057;-79
2021/05/09 02:26:44;;;;;;;3.40;2.95;;;;;;;11.87;96.30;100149.41;5004993;28;20136;-78
2021/05/09 02:29:10;;;;;;;3.53;2.60;;;;;;;12.00;95.79;100143.34;5008404;28;20633;-78
2021/05/09 02:31:38;;;;;;;3.80;3.10;;;;;;;11.91;96.14;100152.91;5018905;28;20042;-78
2021/05/09 02:34:11;;;;;;;4.03;2.70;;;;;;;12.02;95.68;100154.53;5007933;28;20022;-78
2021/05/09 02:36:37;;;;;;;3.38;2.60;;;;;;;12.12;94.42;100158.44;5009505;28;20084;-77
2021/05/09 02:39:03;;;;;;;3.95;3.10;;;;;;;12.03;95.02;100147.22;5012970;28;20029;-78
2021/05/09 02:41:29;;;;;;;4.25;2.90;;;;;;;12.09;95.83;100141.09;5010905;28;20420;-77
2021/05/09 02:43:55;;;;;;;3.53;2.90;;;;;;;12.36;93.59;100138.91;5002749;28;20065;-78
2021/05/09 02:46:20;;;;;;;4.57;2.95;;;;;;;12.20;92.64;100136.50;4987623;28;20037;-78
2021/05/09 02:48:46;;;;;;;3.50;2.67;;;;;;;12.12;93.49;100139.53;5008173;28;20026;-78
2021/05/09 02:51:11;;;;;;;3.08;2.60;;;;;;;12.04;94.22;100141.44;5009698;28;20498;-78
2021/05/09 02:53:37;;;;;;;3.20;2.70;;;;;;;12.20;93.41;100138.44;5008456;28;20044;-77
2021/05/09 02:56:05;;;;;;;3.45;2.83;;;;;;;12.26;92.64;100135.00;5003413;28;20030;-78
2021/05/09 02:58:30;;;;;;;4.85;2.42;;;;;;;12.27;91.96;100144.63;4997247;28;20073;-78
2021/05/09 03:00:56;;;;;;;3.45;2.58;;;;;;;12.06;92.88;100141.81;5000436;28;20406;-78
2021/05/09 03:03:22;;;;;;;4.28;2.85;;;;;;;12.24;92.00;100137.31;5008417;28;20057;-78
2021/05/09 03:05:48;;;;;;;4.38;2.80;;;;;;;12.25;91.54;100138.84;5007502;28;20080;-77
2021/05/09 03:08:16;;;;;;;2.72;2.53;;;;;;;12.32;91.59;100140.81;5008124;28;20433;-77
2021/05/09 03:10:46;;;;;;;5.45;2.50;;;;;;;12.34;91.54;100136.59;5005896;28;20040;-77
2021/05/09 03:13:12;;;;;;;3.15;2.50;;;;;;;12.42;91.36;100132.78;5008331;28;20069;-78
2021/05/09 03:15:38;;;;;;;3.45;2.60;;;;;;;12.43;91.60;100147.81;5009266;28;20069;-78
2021/05/09 03:18:04;;;;;;;3.03;2.40;;;;;;;12.05;92.21;100148.41;4991600;28;20065;-78
2021/05/09 03:20:29;;;;;;;4.50;2.63;;;;;;;12.40;91.67;100150.50;5007936;28;20098;-78
2021/05/09 03:22:55;;;;;;;3.90;2.63;;;;;;;12.35;91.24;100148.19;5007053;28;20033;-78
2021/05/09 03:25:21;;;;;;;4.25;2.50;;;;;;;12.38;91.51;100150.88;4996830;28;20065;-78
2021/05/09 03:27:46;;;;;;;3.53;2.60;;;;;;;12.28;91.34;100153.53;5009180;28;20741;-78
2021/05/09 03:30:12;;;;;;;2.63;2.38;;;;;;;12.46;90.44;100141.66;4999270;28;20037;-78
2021/05/09 03:32:38;;;;;;;3.75;2.25;;;;;;;12.53;89.00;100149.00;5001546;28;20033;-79
2021/05/09 03:35:07;;;;;;;4.30;2.47;;;;;;;12.68;89.65;100156.78;5006441;28;20022;-78
2021/05/09 03:37:33;;;;;;;4.30;2.67;;;;;;;12.54;89.94;100143.22;5007537;28;20022;-79
2021/05/09 03:39:59;;;;;;;3.78;2.63;;;;;;;12.75;89.10;100142.53;5006882;28;20081;-77
2021/05/09 03:42:24;;;;;;;4.25;2.50;;;;;;;12.90;87.87;100146.03;5013608;28;20072;-77
2021/05/09 03:44:50;;;;;;;2.65;2.30;;;;;;;12.57;89.29;100149.81;5009154;28;20025;-78
2021/05/09 03:47:15;;;;;;;2.65;2.45;;;;;;;12.58;90.13;100152.13;5006179;28;20174;-78
2021/05/09 03:49:41;;;;;;;6.97;2.45;;;;;;;12.76;89.17;100146.00;4994516;28;20414;-78
2021/05/09 03:52:07;;;;;;;4.20;2.40;;;;;;;12.55;89.93;100155.59;4997305;28;20095;-77
2021/05/09 03:54:32;;;;;;;2.63;2.33;;;;;;;12.69;89.19;100147.53;4998724;28;20034;-78
2021/05/09 03:56:58;;;;;;;5.93;2.58;;;;;;;12.58;89.53;100140.56;5009973;28;20036;-77
2021/05/09 03:59:24;;;;;;;3.42;2.45;;;;;;;12.84;88.92;100147.56;5003549;28;20044;-78
2021/05/09 04:01:49;;;;;;;3.50;2.10;;;;;;;12.79;89.08;100139.84;5006864;28;20413;-77
2021/05/09 04:04:15;;;;;;;3.47;2.25;;;;;;;12.76;88.01;100143.28;5002088;28;20494;-77
2021/05/09 04:06:40;;;;;;;4.40;2.50;;;;;;;12.74;88.50;100146.38;5010782;28;20034;-76
2021/05/09 04:09:06;;;;;;;6.30;2.25;;;;;;;12.74;88.41;100138.28;5007622;28;20034;-78
2021/05/09 04:11:34;;;;;;;4.05;2.38;;;;;;;12.90;87.94;100146.03;4996952;28;20034;-78
2021/05/09 04:14:00;;;;;;;4.18;2.08;;;;;;;12.97;87.20;100146.06;5012700;28;20520;-77
2021/05/09 04:16:26;;;;;;;2.47;2.17;;;;;;;12.99;87.02;100144.53;5011049;28;20029;-78
2021/05/09 04:18:51;;;;;;;10.02;2.40;;;;;;;13.10;86.22;100144.59;5005075;28;20080;-78
2021/05/09 04:21:17;;;;;;;2.97;2.30;;;;;;;12.84;87.96;100148.34;5012055;28;20034;-76
2021/05/09 04:23:42;;;;;;;3.45;2.20;;;;;;;12.81;86.76;100149.13;5033175;22;20045;-77
2021/05/09 04:26:08;;;;;;;4.07;2.15;;;;;;;12.93;87.54;100137.19;5049915;28;20564;-78
2021/05/09 04:28:33;;;;;;;7.03;3.17;;;;;;;12.80;87.45;100144.84;5038464;28;20426;-78
2021/05/09 04:30:59;;;;;;;2.80;2.00;;;;;;;12.88;87.03;100143.72;5032468;28;20025;-78
2021/05/09 04:33:28;;;;;;;2.28;2.00;;;;;;;12.76;88.26;100144.06;5041882;28;20017;-78
2021/05/09 04:35:54;;;;;;;2.55;1.90;;;;;;;12.76;88.37;100135.19;5025604;28;20494;-78
2021/05/09 04:38:20;;;;;;;3.65;2.30;;;;;;;12.90;86.63;100140.63;5038615;28;20033;-78
2021/05/09 04:40:47;;;;;;;2.60;1.92;;;;;;;12.91;87.23;100139.50;5019720;28;20029;-78
2021/05/09 04:43:15;;;;;;;7.25;2.30;;;;;;;12.93;86.96;100140.63;5036383;28;20091;-78
2021/05/09 04:45:45;;;;;;;2.72;2.05;;;;;;;12.98;87.60;100140.28;5032995;28;20048;-78
2021/05/09 04:48:11;;;;;;;4.38;2.28;;;;;;;13.19;85.40;100142.28;5026186;28;20188;-77
2021/05/09 04:50:36;;;;;;;3.05;2.00;;;;;;;13.14;86.18;100134.53;5022074;28;20589;-78
2021/05/09 04:53:02;;;;;;;2.58;2.20;;;;;;;13.06;86.95;100138.41;5035648;28;20105;-77
2021/05/09 04:55:28;;;;;;;2.42;1.90;;;;;;;13.19;86.02;100132.22;5028979;28;20026;-77
2021/05/09 04:57:53;;;;;;;2.10;1.92;;;;;;;13.22;85.21;100136.09;5024577;28;20118;-77
2021/05/09 05:00:19;;;;;;;2.85;2.03;;;;;;;13.30;84.78;100127.59;5011320;28;20041;-78
2021/05/09 05:02:46;;;;;;;3.72;2.08;;;;;;;13.21;84.44;100129.91;5027881;28;20120;-77
2021/05/09 05:05:13;;;;;;;4.60;2.13;;;;;;;13.15;84.89;100141.50;5018892;28;20124;-78
2021/05/09 05:07:38;;;;;;;2.20;1.92;;;;;;;13.24;84.90;100142.66;5027700;28;20113;-77
2021/05/09 05:10:05;;;;;;;1.90;1.80;;;;;;;13.34;82.84;100124.91;5022613;28;20059;-77
2021/05/09 05:12:31;;;;;;;8.05;2.70;;;;;;;13.54;82.90;100124.13;5034862;28;20030;-77
2021/05/09 05:14:56;;;;;;;3.65;1.80;;;;;;;13.64;82.08;100128.00;5035325;28;20032;-78
2021/05/09 05:17:22;;;;;;;2.65;1.70;;;;;;;13.82;80.68;100128.72;5041358;28;20116;-78
2021/05/09 05:19:47;;;;;;;2.05;1.83;;;;;;;14.10;80.08;100119.78;5036247;28;20033;-78
2021/05/09 05:22:13;;;;;;;3.63;1.83;;;;;;;14.11;80.25;100130.22;5033052;28;20029;-77
2021/05/09 05:24:39;;;;;;;1.90;1.80;;;;;;;14.57;78.05;100123.91;5028267;28;20036;-77
2021/05/09 05:27:04;;;;;;;4.28;1.65;;;;;;;14.82;76.88;100124.56;5034044;28;20068;-78
2021/05/09 05:29:30;;;;;;;2.25;1.58;;;;;;;15.11;76.44;100129.41;5028769;28;20128;-78
2021/05/09 05:31:56;;;;;;;2.50;1.90;;;;;;;15.54;72.89;100120.97;5026709;28;20040;-78
2021/05/09 05:34:21;;;;;;;5.03;1.63;;;;;;;15.48;71.32;100126.06;5032562;28;20037;-77
2021/05/09 05:36:47;;;;;;;4.00;1.60;;;;;;;15.58;72.25;100122.47;5021003;28;20201;-77
2021/05/09 05:39:13;;;;;;;2.53;1.50;;;;;;;15.19;74.43;100136.31;5026359;28;20063;-77
2021/05/09 05:41:39;;;;;;;4.10;1.75;;;;;;;15.85;72.13;100128.81;5020543;28;20048;-78
2021/05/09 05:44:05;;;;;;;3.80;1.65;;;;;;;16.06;70.95;100136.00;5027165;28;20124;-78
2021/05/09 05:46:30;;;;;;;1.60;1.48;;;;;;;15.83;71.98;100128.44;5020844;28;20498;-78
2021/05/09 05:48:56;;;;;;;2.75;1.60;;;;;;;16.34;70.31;100126.75;5028125;28;20029;-78
2021/05/09 05:51:22;;;;;;;3.05;1.60;;;;;;;16.19;68.61;100132.34;5027269;28;20072;-78
2021/05/09 05:53:48;;;;;;;2.17;1.40;;;;;;;16.48;69.40;100127.38;5025075;28;20061;-78
2021/05/09 05:56:14;;;;;;;2.47;1.48;;;;;;;16.44;67.60;100142.16;5022538;28;20095;-78
2021/05/09 05:58:40;;;;;;;8.10;1.80;;;;;;;16.21;70.18;100130.00;5030035;28;20025;-78
2021/05/09 06:01:05;;;;;;;3.28;1.30;;;;;;;16.04;70.55;100132.91;5024278;28;20048;-78
2021/05/09 06:03:31;;;;;;;2.05;1.48;;;;;;;16.34;69.57;100134.91;5028713;28;20029;-79
2021/05/09 06:05:57;;;;;;;5.05;1.50;;;;;;;16.38;69.53;100130.19;5021666;28;20116;-78
2021/05/09 06:08:23;;;;;;;3.35;1.30;;;;;;;16.38;69.97;100132.91;5038014;28;20056;-78
2021/05/09 06:10:49;;;;;;;2.03;1.50;;;;;;;16.76;70.32;100131.69;5031705;28;20044;-77
2021/05/09 06:13:15;;;;;;;2.53;1.80;;;;;;;17.15;67.23;100123.72;5025567;28;20041;-78
2021/05/09 06:15:41;;;;;;;5.40;1.65;;;;;;;17.13;68.11;100123.38;5042575;28;20022;-78
2021/05/09 06:18:07;;;;;;;2.55;1.60;;;;;;;17.31;69.53;100117.66;5040689;28;20032;-78
2021/05/09 06:20:33;;;;;;;4.80;2.03;;;;;;;17.66;65.49;100123.31;5031102;28;20504;-78
2021/05/09 06:23:01;;;;;;;2.15;1.58;;;;;;;17.49;65.87;100116.22;5029134;28;20025;-78
2021/05/09 06:25:27;;;;;;;2.15;1.40;;;;;;;17.77;66.06;100125.84;5025265;28;20029;-78
2021/05/09 06:27:53;;;;;;;3.17;1.50;;;;;;;17.73;63.97;100114.28;5016715;28;20052;-79
2021/05/09 06:30:20;;;;;;;2.85;1.88;;;;;;;17.61;65.52;100117.59;5025937;28;20401;-78
2021/05/09 06:32:45;;;;;;;1.50;1.40;;;;;;;17.75;64.59;100114.63;5024306;28;20131;-79
2021/05/09 06:35:11;;;;;;;2.40;1.58;;;;;;;18.02;64.79;100126.19;5023097;28;20488;-79
2021/05/09 06:37:36;;;;;;;2.25;1.27;;;;;;;18.14;65.12;100127.53;5024270;28;20702;-79
2021/05/09 06:40:04;;;;;;;1.35;1.25;;;;;;;18.40;64.17;100126.63;5018017;28;20022;-79
2021/05/09 06:42:29;;;;;;;3.72;1.70;;;;;;;18.30;63.82;100131.09;5018604;28;20478;-78
2021/05/09 06:45:02;;;;;;;1.63;1.45;;;;;;;18.67;63.09;100124.53;5007187;28;20033;-79
2021/05/09 06:47:28;;;;;;;2.20;1.40;;;;;;;18.54;63.37;100131.81;5015967;28;20060;-79
2021/05/09 06:49:53;;;;;;;2.55;1.50;;;;;;;18.63;64.46;100130.06;5026115;28;20034;-78
2021/05/09 06:52:19;;;;;;;5.18;1.48;;;;;;;18.41;64.29;100136.31;5027359;28;20481;-79
2021/05/09 06:54:44;;;;;;;1.95;1.30;;;;;;;19.01;62.48;100126.91;5026867;28;20029;-79
2021/05/09 06:57:10;;;;;;;2.45;1.30;;;;;;;19.25;60.82;100125.56;5020353;28;20109;-79
2021/05/09 06:59:35;;;;;;;2.28;1.50;;;;;;;19.14;62.04;100127.78;5026853;28;20448;-79
2021/05/09 07:02:01;;;;;;;2.40;1.55;;;;;;;19.24;59.07;100118.56;5028013;28;20630;-79
2021/05/09 07:04:26;;;;;;;2.05;1.33;;;;;;;19.30;59.64;100133.25;5031420;28;20884;-79
2021/05/09 07:06:52;;;;;;;1.70;1.60;;;;;;;19.25;61.84;100126.31;5023092;28;20049;-79
2021/05/09 07:09:18;;;;;;;3.13;1.48;;;;;;;19.37;61.36;100127.63;5021931;28;20071;-78
2021/05/09 07:11:43;;;;;;;2.08;1.20;;;;;;;19.67;60.06;100130.78;5018131;28;20025;-80
2021/05/09 07:14:09;;;;;;;2.33;1.40;;;;;;;20.01;nan;100138.50;5024289;28;20026;-79
2021/05/09 07:16:36;;;;;;;2.55;1.50;;;;;;;19.92;60.15;100130.13;5025978;28;20056;-80
2021/05/09 07:19:03;;;;;;;4.53;1.60;;;;;;;20.29;58.88;100132.28;5023924;28;20052;-79
2021/05/09 07:21:33;;;;;;;1.48;1.38;;;;;;;20.79;55.98;100128.13;5036926;28;20025;-81
2021/05/09 07:23:58;;;;;;;2.55;1.50;;;;;;;20.77;57.36;100127.78;5041201;28;20064;-80
2021/05/09 07:26:24;;;;;;;6.18;1.70;;;;;;;20.94;55.37;100135.47;5023869;28;20120;-80
2021/05/09 07:28:49;;;;;;;1.45;1.27;;;;;;;21.14;54.39;100129.78;5032639;28;20029;-80
2021/05/09 07:31:15;;;;;;;2.40;1.30;;;;;;;21.09;55.20;100133.84;5042952;28;20482;-80
2021/05/09 07:33:41;;;;;;;3.13;1.40;;;;;;;21.33;54.28;100120.56;5023923;28;20728;-79
2021/05/09 07:36:27;;;;;;;3.00;1.58;;;;;;;21.37;54.29;100119.25;5030860;28;20366;-80
2021/05/09 07:38:53;;;;;;;3.45;1.33;;;;;;;21.05;54.16;100126.94;4973006;28;20113;-79
2021/05/09 07:41:18;;;;;;;4.53;1.40;;;;;;;21.25;54.36;100120.00;4981104;28;20046;-78
2021/05/09 07:43:46;;;;;;;3.90;1.40;;;;;;;21.49;54.66;100126.69;4972421;28;20051;-80
2021/05/09 07:46:11;;;;;;;1.40;1.30;;;;;;;21.49;54.17;100128.63;4984741;28;20078;-78
2021/05/09 07:48:37;;;;;;;2.92;1.38;;;;;;;21.77;53.60;100121.44;4971220;28;20039;-78
2021/05/09 07:51:02;;;;;;;2.65;1.60;;;;;;;21.71;54.39;100117.75;4971694;28;20046;-81
2021/05/09 07:53:28;;;;;;;6.20;1.45;;;;;;;21.84;53.14;100113.78;4983751;28;20069;-80
2021/05/09 07:55:53;;;;;;;2.42;1.40;;;;;;;21.82;53.11;100112.69;4978703;28;20047;-78
2021/05/09 07:58:21;;;;;;;3.40;1.60;;;;;;;21.76;53.24;100112.47;4974206;28;20126;-81
2021/05/09 08:00:48;;;;;;;6.75;1.50;;;;;;;22.01;53.31;100125.34;4971258;28;20070;-80
2021/05/09 08:03:14;;;;;;;2.85;1.35;;;;;;;22.26;53.26;100120.50;4955971;28;20051;-79
2021/05/09 08:05:40;;;;;;;5.32;1.60;;;;;;;22.27;52.50;100127.53;4976459;28;20030;-80
2021/05/09 08:08:06;;;;;;;4.43;1.88;;;;;;;22.40;53.04;100121.97;4965289;28;20045;-78
2021/05/09 08:10:36;;;;;;;3.90;1.48;;;;;;;22.63;52.92;100126.25;4974438;28;20055;-79
2021/05/09 08:13:04;;;;;;;3.63;1.52;;;;;;;22.90;53.10;100123.66;4966432;28;20049;-82
2021/05/09 08:15:30;;;;;;;6.13;1.38;;;;;;;23.26;51.04;100129.25;4996033;28;20056;-80
2021/05/09 08:17:57;;;;;;;3.97;1.50;;;;;;;23.44;50.56;100131.34;5023379;28;20108;-82
2021/05/09 08:20:25;;;;;;;3.08;1.60;;;;;;;23.24;50.33;100142.69;5024372;28;20034;-82
2021/05/09 08:22:51;;;;;;;3.42;1.30;;;;;;;23.37;50.04;100129.63;5027623;28;20037;-83
2021/05/09 08:25:17;;;;;;;2.70;1.70;;;;;;;23.68;50.10;100124.78;5038458;28;20065;-80
2021/05/09 08:27:45;;;;;;;3.40;1.67;;;;;;;23.43;50.48;100125.06;5019080;28;20094;-82
2021/05/09 08:30:11;;;;;;;3.20;1.80;;;;;;;23.44;49.45;100123.81;5048050;28;20029;-82
2021/05/09 08:32:36;;;;;;;5.10;1.52;;;;;;;23.57;50.60;100116.22;5025612;28;20632;-83
2021/05/09 08:35:05;;;;;;;5.05;1.50;;;;;;;23.86;50.55;100111.06;5037662;28;20032;-81
2021/05/09 08:37:31;;;;;;;2.38;1.45;;;;;;;24.04;49.15;100116.56;5018724;28;20044;-78
2021/05/09 08:39:56;;;;;;;4.43;1.55;;;;;;;24.48;48.42;100117.00;5017903;28;20065;-83
2021/05/09 08:42:22;;;;;;;3.88;1.40;;;;;;;24.51;48.44;100118.81;5024534;28;20119;-82
2021/05/09 08:44:49;;;;;;;3.17;1.55;;;;;;;24.43;48.37;100130.63;5017829;28;20028;-81
2021/05/09 08:47:15;;;;;;;5.95;1.80;;;;;;;24.64;48.26;100119.38;5034989;28;20109;-82
2021/05/09 08:49:42;;;;;;;2.25;2.00;;;;;;;24.68;47.46;100119.25;5023970;28;20037;-77
2021/05/09 08:52:10;;;;;;;1.88;1.30;;;;;;;24.45;47.44;100122.66;5025757;28;20116;-78
2021/05/09 08:54:36;;;;;;;3.40;1.65;;;;;;;24.26;48.20;100116.41;5020824;28;20042;-77
2021/05/09 08:57:05;;;;;;;5.90;1.80;;;;;;;24.59;47.64;100106.25;5032791;28;20044;-78
2021/05/09 08:59:31;;;;;;;3.00;1.73;;;;;;;24.76;47.44;100093.66;5024777;28;20053;-78
2021/05/09 09:01:57;;;;;;;4.57;1.70;;;;;;;24.75;47.18;100103.16;5025116;28;20399;-78
2021/05/09 09:04:23;;;;;;;3.80;1.40;;;;;;;24.95;46.98;100095.09;5015188;28;20049;-79
2021/05/09 09:06:53;;;;;;;3.00;1.50;;;;;;;25.00;46.16;100096.47;5022146;28;20131;-83
2021/05/09 09:09:22;;;;;;;1.50;1.35;;;;;;;24.87;46.61;100084.91;5018460;28;20030;-81
2021/05/09 09:11:57;;;;;;;2.03;1.40;;;;;;;24.54;47.03;100084.84;5028107;28;20042;-82
2021/05/09 09:14:27;;;;;;;2.35;1.60;;;;;;;24.68;47.30;100092.44;5031387;28;20033;-79
2021/05/09 09:17:15;;;;;;;4.82;1.70;;;;;;;25.02;46.76;100078.25;5035892;28;20048;-80
2021/05/09 09:20:14;;;;;;;4.72;1.60;;;;;;;25.62;46.34;100080.03;5032892;28;20421;-82
2021/05/09 09:22:57;;;;;;;3.15;1.20;;;;;;;25.12;46.43;100076.19;5035210;28;20030;-80
2021/05/09 09:25:30;;;;;;;5.63;1.23;;;;;;;25.12;46.31;100075.44;5028320;28;20313;-81
2021/05/09 09:27:56;;;;;;;3.28;1.20;;;;;;;25.16;46.88;100059.47;5026580;28;20040;-80
2021/05/09 09:30:23;;;;;;;4.80;1.40;;;;;;;25.57;45.87;100064.88;5031665;28;20025;-79
2021/05/09 09:33:10;;;;;;;2.97;1.00;;;;;;;25.42;45.57;100055.03;5027598;28;20037;-83
2021/05/09 09:35:36;;;;;;;3.55;1.40;;;;;;;25.83;45.87;100041.06;5031764;28;20038;-80
2021/05/09 09:38:26;;;;;;;3.85;1.20;;;;;;;26.49;44.18;100051.75;5037473;28;20044;-79
2021/05/09 09:41:12;;;;;;;2.55;1.30;;;;;;;26.00;43.70;100044.13;5032752;28;20025;-79
2021/05/09 09:43:39;;;;;;;2.58;1.17;;;;;;;26.66;43.37;100056.31;5033820;28;20064;-79
2021/05/09 09:46:23;;;;;;;2.20;1.30;;;;;;;26.45;42.94;100043.66;5024185;28;20056;-79
2021/05/09 09:48:48;;;;;;;4.32;1.33;;;;;;;26.60;44.08;100049.16;5025778;28;20048;-78
2021/05/09 09:51:13;;;;;;;6.40;1.50;;;;;;;27.00;43.63;100041.00;5028203;28;20037;-81
2021/05/09 09:53:42;;;;;;;4.57;1.52;;;;;;;26.92;41.85;100037.13;5026480;28;20663;-80
2021/05/09 09:56:10;;;;;;;4.28;1.40;;;;;;;26.44;44.77;100033.84;5031580;28;20030;-84
2021/05/09 09:59:11;;;;;;;8.38;3.47;;;;;;;26.08;43.54;100027.97;5031670;28;20033;-80
2021/05/09 10:01:37;;;;;;;10.60;3.78;;;;;;;26.09;44.67;100010.16;4988599;28;20042;-79
2021/05/09 10:04:05;;;;;;;3.75;2.15;;;;;;;26.28;42.75;100014.25;5018763;28;20465;-79
2021/05/09 10:06:31;;;;;;;4.35;2.20;;;;;;;25.96;43.79;100015.94;5027794;28;20083;-79
2021/05/09 10:08:58;;;;;;;3.88;2.17;;;;;;;25.77;43.82;100015.34;5030132;28;20033;-81
2021/05/09 10:11:24;;;;;;;7.70;3.22;;;;;;;25.78;44.19;100010.59;5031824;28;20490;-80
2021/05/09 10:13:52;;;;;;;1.70;1.55;;;;;;;26.32;44.72;100004.53;5033381;28;20040;-79
2021/05/09 10:16:23;;;;;;;2.83;1.60;;;;;;;26.78;42.73;100008.28;5020174;28;20041;-80
2021/05/09 10:18:53;;;;;;;3.45;1.40;;;;;;;27.45;41.64;100014.66;5021541;28;20036;-81
2021/05/09 10:21:26;;;;;;;4.05;2.13;;;;;;;27.36;41.23;100009.28;5018411;28;20581;-79
2021/05/09 10:24:18;;;;;;;2.00;1.60;;;;;;;26.42;42.54;100008.69;5031669;23;20014;-79
2021/05/09 10:26:51;;;;;;;2.13;1.27;;;;;;;26.11;43.22;99994.66;5044051;28;20086;-80
2021/05/09 10:29:32;;;;;;;4.88;2.38;;;;;;;26.81;41.96;100006.53;5042322;28;20036;-78
2021/05/09 10:31:59;;;;;;;9.00;4.40;;;;;;;26.35;42.54;100003.56;5033764;28;20029;-77
2021/05/09 10:34:49;;;;;;;6.13;3.10;;;;;;;27.03;40.91;100003.31;5029394;28;20034;-78
2021/05/09 10:37:34;;;;;;;3.40;2.13;;;;;;;27.07;41.31;99974.22;5026355;28;20042;-79
2021/05/09 10:40:34;;;;;;;4.68;3.28;;;;;;;27.26;41.43;99983.75;5023493;28;20367;-78
2021/05/09 10:43:03;;;;;;;2.03;1.35;;;;;;;27.10;41.94;99978.03;4984443;28;20551;-77
2021/05/09 10:45:30;;;;;;;3.28;1.80;;;;;;;27.33;40.67;99974.31;5026830;28;20053;-78
2021/05/09 10:48:20;;;;;;;6.38;2.70;;;;;;;27.18;40.90;99979.09;5018425;28;20083;-78
2021/05/09 10:51:03;;;;;;;5.80;2.42;;;;;;;27.10;40.79;99972.50;5031419;28;20421;-78
2021/05/09 10:53:35;;;;;;;3.50;2.38;;;;;;;27.35;39.79;99966.28;5037502;28;20129;-78
2021/05/09 10:56:04;;;;;;;4.10;1.63;;;;;;;27.97;40.11;99963.63;5013540;28;20503;-78
2021/05/09 10:58:39;;;;;;;4.13;1.80;;;;;;;28.10;39.89;99977.88;5035360;28;20032;-78
2021/05/09 11:01:07;;;;;;;2.38;1.30;;;;;;;28.63;39.97;99968.91;5040600;28;20042;-78
2021/05/09 11:03:36;;;;;;;2.75;1.50;;;;;;;28.69;39.83;99960.66;5035893;28;20069;-78
2021/05/09 11:06:21;;;;;;;1.20;1.10;;;;;;;29.06;39.37;99964.09;5029650;28;20030;-78
2021/05/09 11:08:52;;;;;;;2.97;1.50;;;;;;;29.29;38.32;99963.72;5032242;28;20375;-79
2021/05/09 11:11:30;;;;;;;6.55;2.35;;;;;;;28.80;39.11;99957.94;5038878;28;20029;-78
2021/05/09 11:14:02;;;;;;;4.18;1.30;;;;;;;29.28;38.62;99958.66;5023110;28;20038;-78
2021/05/09 11:16:28;;;;;;;11.43;1.77;;;;;;;29.09;38.26;99960.34;5034774;28;20080;-78
2021/05/09 11:19:09;;;;;;;6.45;1.55;;;;;;;28.64;38.62;99945.50;5032911;28;20052;-78
2021/05/09 11:22:02;;;;;;;2.22;1.02;;;;;;;28.90;38.95;99942.59;5026248;28;20025;-79
2021/05/09 11:24:30;;;;;;;2.63;1.15;;;;;;;29.02;38.16;99942.16;5021498;28;20037;-78
2021/05/09 11:26:58;;;;;;;2.20;1.23;;;;;;;29.49;38.15;99935.00;5036934;28;20022;-78
2021/05/09 11:29:27;;;;;;;3.22;1.50;;;;;;;29.60;37.19;99940.56;5031437;28;20116;-78